Akra, North Dakota
Current Conditions -  °F | °C
As of 2:15 AM on Tuesday 27 Jan 2015 (Local Time) from K2C8 Reporting Station
Overcast Overcast  
Wind Chill: -8°   Ceiling: 200
Heat Index: -8°   Visibility: 7mi
Dew Point: -8°   Wind: 3mph
Humidity: 100%   Direction: 160°SSE
Pressure: 30.02"   Gusts: NA
Location:  48.8218°N, 97.697°W
Report Text: K2C8 270815Z AUTO 16003KT 7SM OVC002 M08/M08 A3002 RMK AO2
Loading
Personal Weather Stations






























Interactive Weather Map New forecast layout! Learn more

10-Day Weather Forecast

Advertisements
Track Severe Weather on mobile